Aviation Digital Data Service (ADDS)

Output produced by METARs form (2245 UTC 31 October 2014)
found at http://aviationweather.gov/adds/metars/
 
KDEN 312056Z 3121/0124 33007KT P6SM FEW140 BKN220 
     FM010000 14007KT P6SM FEW140 BKN220 
     FM010300 20010KT P6SM FEW140 SCT220 
     FM010700 22012KT P6SM FEW120 BKN220 
     FM011400 VRB05KT P6SM FEW120 BKN200 
     FM011900 04007KT P6SM FEW120 SCT200